PWSweather.com
Personal Weather Stations
Station Observations
KWIATHEL1
Marinette County, Athelstane, WI 54104

Marinette CountyAthelstane, WI 54104

Lat: 45.4, Lon: -88.12

Elevation: 960

Station Type: Acurite 5in1 Pro

http://weather.athelstanewi.com

High Low Average
Temperature 71.9°F22.2°C 55.0°F12.8°C 62.5°F16.9°C
Dew Point 62.4°F16.9°C 54.5°F12.5°C 59.1°F15.1°C
Winds 5.8 mph 9.3 kmh Calm Calm 1.0 mph WSW1.6 kmh WSW
Wind Gusts 11.5 mph18.5 kmh -- 2.0 mph3.2 kmh
Humidity 98% 63% 90%
Pressure 29.64 in1003.7 mb 29.40 in995.6 mb -
Precipitation 0.66 in16.8 mm - -
Hour Temp Dew Point Humidity Winds Wind Gusts Pressure Precip Precip Rate Daily Precip Total
12:00 AM 64.8°F18.2°C 59.5°F15.3°C 83% Calm Calm -- 29.49 in998.6 mb - 0.00 in0.0 mm 0.00 in0.0 mm
12:10 AM 64.1°F17.8°C 58.8°F14.9°C 83% Calm Calm -- 29.48 in998.3 mb - 0.00 in0.0 mm 0.00 in0.0 mm
12:15 AM 64.0°F17.8°C 58.8°F14.9°C 83% Calm Calm -- 29.47 in998.0 mb - 0.00 in0.0 mm 0.00 in0.0 mm
12:20 AM 63.9°F17.7°C 58.6°F14.8°C 83% Calm Calm -- 29.46 in997.6 mb - 0.00 in0.0 mm 0.00 in0.0 mm
12:25 AM 63.9°F17.7°C 58.6°F14.8°C 83% Calm Calm -- 29.46 in997.6 mb - 0.00 in0.0 mm 0.00 in0.0 mm
12:30 AM 63.7°F17.6°C 59.4°F15.2°C 86% Calm Calm -- 29.46 in997.6 mb - 0.00 in0.0 mm 0.00 in0.0 mm
12:35 AM 63.7°F17.6°C 59.4°F15.2°C 86% Calm Calm -- 29.46 in997.6 mb - 0.00 in0.0 mm 0.00 in0.0 mm
12:40 AM 63.3°F17.4°C 59.1°F15.1°C 86% Calm Calm -- 29.46 in997.6 mb - 0.00 in0.0 mm 0.00 in0.0 mm
12:45 AM 63.3°F17.4°C 59.1°F15.1°C 86% Calm Calm -- 29.46 in997.6 mb - 0.00 in0.0 mm 0.00 in0.0 mm
12:50 AM 63.3°F17.4°C 59.0°F15.0°C 86% Calm Calm -- 29.46 in997.6 mb - 0.00 in0.0 mm 0.00 in0.0 mm
12:55 AM 63.0°F17.2°C 58.7°F14.8°C 86% Calm Calm -- 29.46 in997.6 mb - 0.00 in0.0 mm 0.00 in0.0 mm
01:00 AM 63.0°F17.2°C 58.7°F14.8°C 86% Calm Calm -- 29.45 in997.3 mb - 0.00 in0.0 mm 0.00 in0.0 mm
01:10 AM 62.7°F17.1°C 59.1°F15.1°C 88% Calm Calm -- 29.46 in997.6 mb - 0.00 in0.0 mm 0.00 in0.0 mm
01:15 AM 62.4°F16.9°C 58.2°F14.6°C 86% Calm Calm -- 29.44 in997.0 mb - 0.00 in0.0 mm 0.00 in0.0 mm
01:20 AM 62.4°F16.9°C 58.8°F14.9°C 88% Calm Calm -- 29.44 in997.0 mb - 0.00 in0.0 mm 0.00 in0.0 mm
01:25 AM 62.4°F16.9°C 58.8°F14.9°C 88% Calm Calm -- 29.45 in997.3 mb - 0.00 in0.0 mm 0.00 in0.0 mm
01:30 AM 62.4°F16.9°C 58.8°F14.9°C 88% Calm Calm -- 29.44 in997.0 mb - 0.00 in0.0 mm 0.00 in0.0 mm
01:35 AM 62.4°F16.9°C 58.8°F14.9°C 88% Calm Calm -- 29.44 in997.0 mb - 0.00 in0.0 mm 0.00 in0.0 mm
01:40 AM 62.4°F16.9°C 58.8°F14.9°C 88% Calm Calm -- 29.44 in997.0 mb - 0.00 in0.0 mm 0.00 in0.0 mm
01:45 AM 62.1°F16.7°C 59.1°F15.1°C 90% Calm Calm -- 29.44 in997.0 mb - 0.00 in0.0 mm 0.00 in0.0 mm
01:50 AM 62.1°F16.7°C 59.1°F15.1°C 90% Calm Calm 1.2 mph1.9 kmh 29.44 in997.0 mb - 0.00 in0.0 mm 0.00 in0.0 mm
01:55 AM 62.1°F16.7°C 59.1°F15.1°C 90% 1.2 mph SW1.9 kmh SW 2.3 mph3.7 kmh 29.44 in997.0 mb - 0.00 in0.0 mm 0.00 in0.0 mm
02:00 AM 62.1°F16.7°C 59.1°F15.1°C 90% 1.2 mph SW1.9 kmh SW -- 29.44 in997.0 mb - 0.00 in0.0 mm 0.00 in0.0 mm
02:10 AM 62.2°F16.8°C 59.3°F15.2°C 90% 2.3 mph WNW3.7 kmh WNW 3.5 mph5.6 kmh 29.43 in996.6 mb - 0.00 in0.0 mm 0.00 in0.0 mm
02:15 AM 62.4°F16.9°C 59.4°F15.2°C 90% 1.2 mph WSW1.9 kmh WSW 1.2 mph1.9 kmh 29.43 in996.6 mb - 0.00 in0.0 mm 0.00 in0.0 mm
02:20 AM 62.4°F16.9°C 59.4°F15.2°C 90% 1.2 mph WNW1.9 kmh WNW 3.5 mph5.6 kmh 29.43 in996.6 mb - 0.00 in0.0 mm 0.00 in0.0 mm
02:25 AM 62.4°F16.9°C 59.4°F15.2°C 90% 1.2 mph W1.9 kmh W 1.2 mph1.9 kmh 29.44 in997.0 mb - 0.00 in0.0 mm 0.00 in0.0 mm
02:30 AM 62.4°F16.9°C 59.4°F15.2°C 90% Calm Calm 1.2 mph1.9 kmh 29.43 in996.6 mb - 0.00 in0.0 mm 0.00 in0.0 mm
02:35 AM 62.4°F16.9°C 59.4°F15.2°C 90% 1.2 mph W1.9 kmh W 2.3 mph3.7 kmh 29.43 in996.6 mb - 0.00 in0.0 mm 0.00 in0.0 mm
02:40 AM 62.4°F16.9°C 59.8°F15.4°C 91% 1.2 mph WNW1.9 kmh WNW 3.5 mph5.6 kmh 29.43 in996.6 mb - 0.00 in0.0 mm 0.00 in0.0 mm
02:45 AM 62.4°F16.9°C 59.8°F15.4°C 91% Calm Calm -- 29.43 in996.6 mb - 0.00 in0.0 mm 0.00 in0.0 mm
02:50 AM 62.3°F16.8°C 59.6°F15.3°C 91% Calm Calm 3.5 mph5.6 kmh 29.43 in996.6 mb - 0.00 in0.0 mm 0.00 in0.0 mm
02:55 AM 62.1°F16.7°C 60.0°F15.6°C 93% 1.2 mph ESE1.9 kmh ESE 2.3 mph3.7 kmh 29.43 in996.6 mb - 0.00 in0.0 mm 0.00 in0.0 mm
03:00 AM 62.1°F16.7°C 60.0°F15.6°C 93% Calm Calm -- 29.42 in996.3 mb - 0.00 in0.0 mm 0.00 in0.0 mm
03:10 AM 61.9°F16.6°C 60.4°F15.8°C 95% 1.2 mph W1.9 kmh W 1.2 mph1.9 kmh 29.42 in996.3 mb - 0.00 in0.0 mm 0.00 in0.0 mm
03:15 AM 61.9°F16.6°C 60.7°F15.9°C 96% Calm Calm 1.2 mph1.9 kmh 29.42 in996.3 mb - 0.00 in0.0 mm 0.00 in0.0 mm
03:20 AM 61.7°F16.5°C 60.5°F15.8°C 96% Calm Calm -- 29.44 in997.0 mb - 0.00 in0.0 mm 0.00 in0.0 mm
03:25 AM 61.7°F16.5°C 60.5°F15.8°C 96% Calm Calm -- 29.44 in997.0 mb - 0.00 in0.0 mm 0.00 in0.0 mm
03:30 AM 61.5°F16.4°C 61.0°F16.1°C 98% Calm Calm -- 29.44 in997.0 mb - 0.01 in0.3 mm 0.01 in0.3 mm
03:35 AM 61.5°F16.4°C 61.0°F16.1°C 98% Calm Calm -- 29.44 in997.0 mb - 0.03 in0.8 mm 0.04 in1.0 mm
03:40 AM 61.3°F16.3°C 60.8°F16.0°C 98% Calm Calm 1.2 mph1.9 kmh 29.42 in996.3 mb - 0.00 in0.0 mm 0.04 in1.0 mm
03:45 AM 61.3°F16.3°C 60.8°F16.0°C 98% Calm Calm 1.2 mph1.9 kmh 29.43 in996.6 mb - 0.01 in0.3 mm 0.05 in1.3 mm
03:50 AM 61.2°F16.2°C 60.6°F15.9°C 98% 1.2 mph SW1.9 kmh SW -- 29.44 in997.0 mb - 0.00 in0.0 mm 0.05 in1.3 mm
03:55 AM 61.2°F16.2°C 60.6°F15.9°C 98% Calm Calm -- 29.44 in997.0 mb - 0.02 in0.5 mm 0.07 in1.8 mm
04:00 AM 61.2°F16.2°C 60.6°F15.9°C 98% Calm Calm 1.2 mph1.9 kmh 29.44 in997.0 mb - 0.02 in0.5 mm 0.09 in2.3 mm
04:10 AM 61.0°F16.1°C 60.4°F15.8°C 98% Calm Calm 2.3 mph3.7 kmh 29.44 in997.0 mb - 0.01 in0.3 mm 0.10 in2.5 mm
04:15 AM 60.6°F15.9°C 60.1°F15.6°C 98% 1.2 mph SSW1.9 kmh SSW 2.3 mph3.7 kmh 29.44 in997.0 mb - 0.01 in0.3 mm 0.11 in2.8 mm
04:20 AM 60.6°F15.9°C 60.1°F15.6°C 98% Calm Calm -- 29.44 in997.0 mb - 0.00 in0.0 mm 0.11 in2.8 mm
04:25 AM 60.6°F15.9°C 60.1°F15.6°C 98% Calm Calm -- 29.44 in997.0 mb - 0.01 in0.3 mm 0.12 in3.0 mm
04:30 AM 60.6°F15.9°C 60.1°F15.6°C 98% Calm Calm -- 29.43 in996.6 mb - 0.01 in0.3 mm 0.13 in3.3 mm
04:35 AM 60.6°F15.9°C 60.1°F15.6°C 98% Calm Calm -- 29.43 in996.6 mb - 0.01 in0.3 mm 0.13 in3.3 mm
04:40 AM 60.6°F15.9°C 60.1°F15.6°C 98% Calm Calm -- 29.43 in996.6 mb - 0.01 in0.3 mm 0.14 in3.6 mm
04:45 AM 60.6°F15.9°C 60.1°F15.6°C 98% 1.2 mph NW1.9 kmh NW -- 29.42 in996.3 mb - 0.00 in0.0 mm 0.14 in3.6 mm
04:50 AM 60.6°F15.9°C 60.1°F15.6°C 98% Calm Calm -- 29.42 in996.3 mb - 0.00 in0.0 mm 0.14 in3.6 mm
04:55 AM 60.4°F15.8°C 59.9°F15.5°C 98% Calm Calm -- 29.42 in996.3 mb - 0.00 in0.0 mm 0.14 in3.6 mm
05:00 AM 60.4°F15.8°C 59.9°F15.5°C 98% Calm Calm -- 29.41 in995.9 mb - 0.00 in0.0 mm 0.14 in3.6 mm
05:10 AM 60.4°F15.8°C 59.9°F15.5°C 98% Calm Calm -- 29.41 in995.9 mb - 0.00 in0.0 mm 0.14 in3.6 mm
05:15 AM 60.4°F15.8°C 59.9°F15.5°C 98% Calm Calm -- 29.41 in995.9 mb - 0.00 in0.0 mm 0.14 in3.6 mm
05:20 AM 60.4°F15.8°C 59.9°F15.5°C 98% Calm Calm -- 29.41 in995.9 mb - 0.00 in0.0 mm 0.14 in3.6 mm
05:25 AM 60.4°F15.8°C 59.9°F15.5°C 98% Calm Calm -- 29.41 in995.9 mb - 0.00 in0.0 mm 0.14 in3.6 mm
05:30 AM 60.4°F15.8°C 59.9°F15.5°C 98% Calm Calm -- 29.41 in995.9 mb - 0.01 in0.3 mm 0.15 in3.8 mm
05:35 AM 60.4°F15.8°C 59.8°F15.4°C 98% Calm Calm -- 29.41 in995.9 mb - 0.00 in0.0 mm 0.15 in3.8 mm
05:40 AM 60.3°F15.7°C 59.7°F15.4°C 98% Calm Calm 2.3 mph3.7 kmh 29.42 in996.3 mb - 0.01 in0.3 mm 0.16 in4.1 mm
05:45 AM 60.3°F15.7°C 59.7°F15.4°C 98% 2.3 mph WSW3.7 kmh WSW 8.1 mph13.0 kmh 29.45 in997.3 mb - 0.02 in0.5 mm 0.18 in4.6 mm
05:50 AM 60.1°F15.6°C 59.5°F15.3°C 98% 3.5 mph NE5.6 kmh NE 2.3 mph3.7 kmh 29.45 in997.3 mb - 0.07 in1.8 mm 0.26 in6.6 mm
05:55 AM 60.1°F15.6°C 59.5°F15.3°C 98% 2.3 mph WSW3.7 kmh WSW 3.5 mph5.6 kmh 29.44 in997.0 mb - 0.02 in0.5 mm 0.27 in6.9 mm
06:00 AM 60.1°F15.6°C 59.5°F15.3°C 98% 1.2 mph WSW1.9 kmh WSW 1.2 mph1.9 kmh 29.44 in997.0 mb - 0.02 in0.5 mm 0.29 in7.4 mm
06:10 AM 60.1°F15.6°C 59.5°F15.3°C 98% Calm Calm 1.2 mph1.9 kmh 29.43 in996.6 mb - 0.03 in0.8 mm 0.32 in8.1 mm
06:15 AM 60.1°F15.6°C 59.5°F15.3°C 98% Calm Calm -- 29.43 in996.6 mb - 0.01 in0.3 mm 0.33 in8.4 mm
06:20 AM 60.1°F15.6°C 59.5°F15.3°C 98% 1.2 mph ESE1.9 kmh ESE 2.3 mph3.7 kmh 29.42 in996.3 mb - 0.02 in0.5 mm 0.35 in8.9 mm
06:25 AM 60.1°F15.6°C 59.5°F15.3°C 98% 1.2 mph NW1.9 kmh NW 2.3 mph3.7 kmh 29.42 in996.3 mb - 0.02 in0.5 mm 0.37 in9.4 mm
06:30 AM 60.1°F15.6°C 59.5°F15.3°C 98% 1.2 mph WSW1.9 kmh WSW -- 29.42 in996.3 mb - 0.02 in0.5 mm 0.38 in9.7 mm
06:35 AM 60.1°F15.6°C 59.5°F15.3°C 98% Calm Calm 1.2 mph1.9 kmh 29.40 in995.6 mb - 0.01 in0.3 mm 0.39 in9.9 mm
06:40 AM 60.1°F15.6°C 59.5°F15.3°C 98% Calm Calm -- 29.41 in995.9 mb - 0.00 in0.0 mm 0.39 in9.9 mm
06:45 AM 60.1°F15.6°C 59.5°F15.3°C 98% Calm Calm -- 29.40 in995.6 mb - 0.00 in0.0 mm 0.39 in9.9 mm
06:50 AM 60.1°F15.6°C 59.5°F15.3°C 98% 1.2 mph SW1.9 kmh SW 1.2 mph1.9 kmh 29.42 in996.3 mb - 0.00 in0.0 mm 0.39 in9.9 mm
06:55 AM 60.1°F15.6°C 59.5°F15.3°C 98% Calm Calm -- 29.42 in996.3 mb - 0.00 in0.0 mm 0.39 in9.9 mm
07:00 AM 60.1°F15.6°C 59.5°F15.3°C 98% Calm Calm 1.2 mph1.9 kmh 29.42 in996.3 mb - 0.00 in0.0 mm 0.39 in9.9 mm
07:10 AM 60.1°F15.6°C 59.5°F15.3°C 98% Calm Calm -- 29.42 in996.3 mb - 0.00 in0.0 mm 0.39 in9.9 mm
07:15 AM 60.1°F15.6°C 59.5°F15.3°C 98% Calm Calm -- 29.43 in996.6 mb - 0.00 in0.0 mm 0.39 in9.9 mm
07:20 AM 60.3°F15.7°C 59.7°F15.4°C 98% Calm Calm -- 29.42 in996.3 mb - 0.00 in0.0 mm 0.39 in9.9 mm
07:25 AM 60.3°F15.7°C 59.7°F15.4°C 98% Calm Calm -- 29.42 in996.3 mb - 0.00 in0.0 mm 0.39 in9.9 mm
07:30 AM 60.3°F15.7°C 59.7°F15.4°C 98% Calm Calm -- 29.42 in996.3 mb - 0.00 in0.0 mm 0.39 in9.9 mm
07:35 AM 60.3°F15.7°C 59.7°F15.4°C 98% Calm Calm -- 29.42 in996.3 mb - 0.00 in0.0 mm 0.39 in9.9 mm
07:40 AM 60.3°F15.7°C 59.7°F15.4°C 98% Calm Calm -- 29.42 in996.3 mb - 0.00 in0.0 mm 0.39 in9.9 mm
07:45 AM 60.6°F15.9°C 60.0°F15.6°C 98% Calm Calm -- 29.42 in996.3 mb - 0.00 in0.0 mm 0.39 in9.9 mm
07:50 AM 60.6°F15.9°C 60.1°F15.6°C 98% Calm Calm 1.2 mph1.9 kmh 29.42 in996.3 mb - 0.00 in0.0 mm 0.39 in9.9 mm
07:55 AM 60.6°F15.9°C 60.1°F15.6°C 98% 1.2 mph WSW1.9 kmh WSW 1.2 mph1.9 kmh 29.42 in996.3 mb - 0.00 in0.0 mm 0.39 in9.9 mm
08:00 AM 60.6°F15.9°C 60.1°F15.6°C 98% Calm Calm -- 29.41 in995.9 mb - 0.01 in0.3 mm 0.40 in10.2 mm
08:10 AM 61.0°F16.1°C 60.4°F15.8°C 98% Calm Calm -- 29.41 in995.9 mb - 0.01 in0.3 mm 0.40 in10.2 mm
08:15 AM 61.2°F16.2°C 60.6°F15.9°C 98% Calm Calm -- 29.41 in995.9 mb - 0.00 in0.0 mm 0.40 in10.2 mm
08:20 AM 61.2°F16.2°C 60.6°F15.9°C 98% Calm Calm -- 29.41 in995.9 mb - 0.00 in0.0 mm 0.40 in10.2 mm
08:35 AM 61.3°F16.3°C 60.8°F16.0°C 98% 1.2 mph WSW1.9 kmh WSW 1.2 mph1.9 kmh 29.41 in995.9 mb - 0.00 in0.0 mm 0.40 in10.2 mm
08:40 AM 61.3°F16.3°C 60.8°F16.0°C 98% 1.2 mph W1.9 kmh W 1.2 mph1.9 kmh 29.41 in995.9 mb - 0.00 in0.0 mm 0.40 in10.2 mm
08:45 AM 61.7°F16.5°C 61.1°F16.2°C 98% Calm Calm 1.2 mph1.9 kmh 29.40 in995.6 mb - 0.00 in0.0 mm 0.40 in10.2 mm
08:50 AM 61.5°F16.4°C 60.9°F16.1°C 98% 2.3 mph WSW3.7 kmh WSW 3.5 mph5.6 kmh 29.41 in995.9 mb - 0.00 in0.0 mm 0.40 in10.2 mm
08:55 AM 61.3°F16.3°C 60.8°F16.0°C 98% 1.2 mph W1.9 kmh W 2.3 mph3.7 kmh 29.40 in995.6 mb - 0.01 in0.3 mm 0.41 in10.4 mm
09:00 AM 61.2°F16.2°C 60.7°F15.9°C 98% 2.3 mph NE3.7 kmh NE 1.2 mph1.9 kmh 29.41 in995.9 mb - 0.00 in0.0 mm 0.41 in10.4 mm
09:10 AM 61.2°F16.2°C 60.6°F15.9°C 98% 2.3 mph NW3.7 kmh NW 3.5 mph5.6 kmh 29.41 in995.9 mb - 0.01 in0.3 mm 0.42 in10.7 mm
09:15 AM 60.8°F16.0°C 60.2°F15.7°C 98% 2.3 mph S3.7 kmh S 3.5 mph5.6 kmh 29.41 in995.9 mb - 0.01 in0.3 mm 0.43 in10.9 mm
09:20 AM 60.6°F15.9°C 60.1°F15.6°C 98% 1.2 mph SE1.9 kmh SE 1.2 mph1.9 kmh 29.41 in995.9 mb - 0.02 in0.5 mm 0.44 in11.2 mm
09:25 AM 60.3°F15.7°C 59.7°F15.4°C 98% 2.3 mph WSW3.7 kmh WSW 3.5 mph5.6 kmh 29.42 in996.3 mb - 0.03 in0.8 mm 0.47 in11.9 mm
09:30 AM 60.3°F15.7°C 59.7°F15.4°C 98% 2.3 mph WNW3.7 kmh WNW 3.5 mph5.6 kmh 29.41 in995.9 mb - 0.03 in0.8 mm 0.50 in12.7 mm
09:35 AM 60.1°F15.6°C 59.5°F15.3°C 98% 1.2 mph NW1.9 kmh NW 2.3 mph3.7 kmh 29.41 in995.9 mb - 0.03 in0.8 mm 0.53 in13.5 mm
09:40 AM 60.1°F15.6°C 59.5°F15.3°C 98% 1.2 mph NNW1.9 kmh NNW 1.2 mph1.9 kmh 29.41 in995.9 mb - 0.02 in0.5 mm 0.54 in13.7 mm
09:45 AM 60.1°F15.6°C 59.5°F15.3°C 98% 1.2 mph W1.9 kmh W 2.3 mph3.7 kmh 29.41 in995.9 mb - 0.01 in0.3 mm 0.55 in14.0 mm
09:50 AM 60.3°F15.7°C 59.7°F15.4°C 98% 1.2 mph W1.9 kmh W 3.5 mph5.6 kmh 29.42 in996.3 mb - 0.00 in0.0 mm 0.55 in14.0 mm
09:55 AM 60.3°F15.7°C 59.7°F15.4°C 98% 1.2 mph W1.9 kmh W -- 29.42 in996.3 mb - 0.01 in0.3 mm 0.56 in14.2 mm
10:00 AM 60.3°F15.7°C 59.7°F15.4°C 98% 1.2 mph W1.9 kmh W 2.3 mph3.7 kmh 29.42 in996.3 mb - 0.01 in0.3 mm 0.57 in14.5 mm
10:10 AM 60.3°F15.7°C 59.7°F15.4°C 98% 2.3 mph NNW3.7 kmh NNW 3.5 mph5.6 kmh 29.42 in996.3 mb - 0.02 in0.5 mm 0.58 in14.7 mm
10:15 AM 60.3°F15.7°C 59.7°F15.4°C 98% 2.3 mph W3.7 kmh W 2.3 mph3.7 kmh 29.44 in997.0 mb - 0.01 in0.3 mm 0.58 in14.7 mm
10:20 AM 60.3°F15.7°C 59.7°F15.4°C 98% 1.2 mph SSW1.9 kmh SSW 1.2 mph1.9 kmh 29.44 in997.0 mb - 0.00 in0.0 mm 0.58 in14.7 mm
10:25 AM 60.3°F15.7°C 59.7°F15.4°C 98% 1.2 mph WNW1.9 kmh WNW 3.5 mph5.6 kmh 29.44 in997.0 mb - 0.01 in0.3 mm 0.59 in15.0 mm
10:30 AM 60.3°F15.7°C 59.7°F15.4°C 98% 2.3 mph WNW3.7 kmh WNW 3.5 mph5.6 kmh 29.44 in997.0 mb - 0.00 in0.0 mm 0.59 in15.0 mm
10:35 AM 60.6°F15.9°C 60.1°F15.6°C 98% 2.3 mph W3.7 kmh W 4.6 mph7.4 kmh 29.44 in997.0 mb - 0.01 in0.3 mm 0.60 in15.2 mm
10:40 AM 61.0°F16.1°C 60.4°F15.8°C 98% 2.3 mph E3.7 kmh E 1.2 mph1.9 kmh 29.44 in997.0 mb - 0.00 in0.0 mm 0.60 in15.2 mm
10:45 AM 61.3°F16.3°C 60.8°F16.0°C 98% 1.2 mph S1.9 kmh S 2.3 mph3.7 kmh 29.44 in997.0 mb - 0.00 in0.0 mm 0.60 in15.2 mm
10:50 AM 61.3°F16.3°C 60.8°F16.0°C 98% 1.2 mph W1.9 kmh W 3.5 mph5.6 kmh 29.44 in997.0 mb - 0.00 in0.0 mm 0.60 in15.2 mm
10:55 AM 61.3°F16.3°C 60.7°F15.9°C 98% 1.2 mph WSW1.9 kmh WSW 3.5 mph5.6 kmh 29.44 in997.0 mb - 0.01 in0.3 mm 0.61 in15.5 mm
11:00 AM 61.5°F16.4°C 61.0°F16.1°C 98% 1.2 mph NW1.9 kmh NW 3.5 mph5.6 kmh 29.44 in997.0 mb - 0.01 in0.3 mm 0.62 in15.7 mm
11:10 AM 61.3°F16.3°C 60.8°F16.0°C 98% 2.3 mph W3.7 kmh W 3.5 mph5.6 kmh 29.46 in997.6 mb - 0.02 in0.5 mm 0.63 in16.0 mm
11:15 AM 61.2°F16.2°C 60.6°F15.9°C 98% 3.5 mph WNW5.6 kmh WNW 4.6 mph7.4 kmh 29.46 in997.6 mb - 0.02 in0.5 mm 0.64 in16.3 mm
11:20 AM 61.2°F16.2°C 60.6°F15.9°C 98% 2.3 mph NW3.7 kmh NW 3.5 mph5.6 kmh 29.46 in997.6 mb - 0.02 in0.5 mm 0.65 in16.5 mm
11:25 AM 61.3°F16.3°C 60.8°F16.0°C 98% 2.3 mph SW3.7 kmh SW 4.6 mph7.4 kmh 29.46 in997.6 mb - 0.01 in0.3 mm 0.65 in16.5 mm
11:30 AM 61.5°F16.4°C 61.0°F16.1°C 98% 3.5 mph WNW5.6 kmh WNW 3.5 mph5.6 kmh 29.46 in997.6 mb - 0.00 in0.0 mm 0.65 in16.5 mm
11:35 AM 62.1°F16.7°C 61.5°F16.4°C 98% 3.5 mph W5.6 kmh W 5.8 mph9.3 kmh 29.46 in997.6 mb - 0.00 in0.0 mm 0.65 in16.5 mm
11:40 AM 62.2°F16.8°C 61.7°F16.5°C 98% 3.5 mph W5.6 kmh W 6.9 mph11.1 kmh 29.46 in997.6 mb - 0.00 in0.0 mm 0.65 in16.5 mm
11:45 AM 62.4°F16.9°C 61.8°F16.6°C 98% 2.3 mph WNW3.7 kmh WNW 3.5 mph5.6 kmh 29.46 in997.6 mb - 0.00 in0.0 mm 0.65 in16.5 mm
11:50 AM 62.7°F17.1°C 61.6°F16.4°C 96% 3.5 mph NW5.6 kmh NW 4.6 mph7.4 kmh 29.46 in997.6 mb - 0.00 in0.0 mm 0.65 in16.5 mm
11:55 AM 63.0°F17.2°C 62.4°F16.9°C 98% 1.2 mph W1.9 kmh W 2.3 mph3.7 kmh 29.46 in997.6 mb - 0.00 in0.0 mm 0.65 in16.5 mm
12:00 PM 63.0°F17.2°C 61.5°F16.4°C 95% 3.5 mph W5.6 kmh W 4.6 mph7.4 kmh 29.46 in997.6 mb - 0.00 in0.0 mm 0.65 in16.5 mm
12:10 PM 63.0°F17.2°C 61.8°F16.6°C 96% 3.5 mph WNW5.6 kmh WNW 5.8 mph9.3 kmh 29.46 in997.6 mb - 0.00 in0.0 mm 0.65 in16.5 mm
12:15 PM 63.0°F17.2°C 61.2°F16.2°C 94% 4.6 mph WSW7.4 kmh WSW 4.6 mph7.4 kmh 29.47 in998.0 mb - 0.00 in0.0 mm 0.65 in16.5 mm
12:20 PM 63.0°F17.2°C 61.8°F16.6°C 96% 3.5 mph WSW5.6 kmh WSW 5.8 mph9.3 kmh 29.46 in997.6 mb - 0.00 in0.0 mm 0.65 in16.5 mm
12:25 PM 63.1°F17.3°C 62.0°F16.7°C 96% 2.3 mph W3.7 kmh W 3.5 mph5.6 kmh 29.47 in998.0 mb - 0.00 in0.0 mm 0.65 in16.5 mm
12:30 PM 63.2°F17.3°C 61.7°F16.5°C 95% 2.3 mph W3.7 kmh W 1.2 mph1.9 kmh 29.47 in998.0 mb - 0.00 in0.0 mm 0.65 in16.5 mm
12:35 PM 63.3°F17.4°C 60.6°F15.9°C 91% 3.5 mph W5.6 kmh W 5.8 mph9.3 kmh 29.49 in998.6 mb - 0.00 in0.0 mm 0.65 in16.5 mm
12:40 PM 63.3°F17.4°C 61.3°F16.3°C 93% 2.3 mph SW3.7 kmh SW 3.5 mph5.6 kmh 29.47 in998.0 mb - 0.00 in0.0 mm 0.65 in16.5 mm
12:45 PM 63.9°F17.7°C 61.8°F16.6°C 93% 2.3 mph NW3.7 kmh NW 4.6 mph7.4 kmh 29.47 in998.0 mb - 0.00 in0.0 mm 0.65 in16.5 mm
12:50 PM 63.9°F17.7°C 61.9°F16.6°C 93% 3.5 mph SW5.6 kmh SW 3.5 mph5.6 kmh 29.47 in998.0 mb - 0.00 in0.0 mm 0.65 in16.5 mm
12:55 PM 64.0°F17.8°C 61.4°F16.3°C 91% 3.5 mph SW5.6 kmh SW 5.8 mph9.3 kmh 29.47 in998.0 mb - 0.00 in0.0 mm 0.65 in16.5 mm
01:00 PM 64.0°F17.8°C 61.4°F16.3°C 91% 5.8 mph NW9.3 kmh NW 8.1 mph13.0 kmh 29.49 in998.6 mb - 0.00 in0.0 mm 0.65 in16.5 mm
01:10 PM 64.9°F18.3°C 61.3°F16.3°C 88% 2.3 mph W3.7 kmh W 3.5 mph5.6 kmh 29.47 in998.0 mb - 0.00 in0.0 mm 0.65 in16.5 mm
01:15 PM 65.4°F18.6°C 61.8°F16.6°C 88% 3.5 mph N5.6 kmh N 3.5 mph5.6 kmh 29.49 in998.6 mb - 0.00 in0.0 mm 0.65 in16.5 mm
01:20 PM 66.4°F19.1°C 61.1°F16.2°C 83% 3.5 mph W5.6 kmh W 3.5 mph5.6 kmh 29.49 in998.6 mb - 0.00 in0.0 mm 0.65 in16.5 mm
01:25 PM 67.4°F19.7°C 62.1°F16.7°C 83% 3.5 mph WSW5.6 kmh WSW 6.9 mph11.1 kmh 29.49 in998.6 mb - 0.00 in0.0 mm 0.65 in16.5 mm
01:30 PM 67.8°F19.9°C 61.1°F16.2°C 79% 4.6 mph WSW7.4 kmh WSW 4.6 mph7.4 kmh 29.49 in998.6 mb - 0.00 in0.0 mm 0.65 in16.5 mm
01:35 PM 69.0°F20.6°C 62.3°F16.8°C 79% 2.3 mph NW3.7 kmh NW 2.3 mph3.7 kmh 29.49 in998.6 mb - 0.00 in0.0 mm 0.65 in16.5 mm
01:40 PM 69.2°F20.7°C 61.3°F16.3°C 76% 2.3 mph NNE3.7 kmh NNE 3.5 mph5.6 kmh 29.49 in998.6 mb - 0.00 in0.0 mm 0.65 in16.5 mm
01:45 PM 69.9°F21.1°C 62.0°F16.7°C 76% 2.3 mph WSW3.7 kmh WSW 5.8 mph9.3 kmh 29.49 in998.6 mb - 0.00 in0.0 mm 0.65 in16.5 mm
01:50 PM 70.5°F21.4°C 60.3°F15.7°C 70% 4.6 mph W7.4 kmh W 4.6 mph7.4 kmh 29.48 in998.3 mb - 0.00 in0.0 mm 0.65 in16.5 mm
01:55 PM 70.1°F21.2°C 59.4°F15.2°C 69% 3.5 mph W5.6 kmh W 6.9 mph11.1 kmh 29.48 in998.3 mb - 0.00 in0.0 mm 0.65 in16.5 mm
02:00 PM 70.8°F21.6°C 60.1°F15.6°C 69% 5.8 mph W9.3 kmh W 6.9 mph11.1 kmh 29.47 in998.0 mb - 0.00 in0.0 mm 0.65 in16.5 mm
02:10 PM 69.8°F21.0°C 58.8°F14.9°C 68% 4.6 mph SW7.4 kmh SW 4.6 mph7.4 kmh 29.49 in998.6 mb - 0.00 in0.0 mm 0.65 in16.5 mm
02:15 PM 69.8°F21.0°C 59.6°F15.3°C 70% 2.3 mph S3.7 kmh S 1.2 mph1.9 kmh 29.49 in998.6 mb - 0.00 in0.0 mm 0.65 in16.5 mm
02:20 PM 69.6°F20.9°C 59.0°F15.0°C 69% 2.3 mph SSE3.7 kmh SSE 2.3 mph3.7 kmh 29.49 in998.6 mb - 0.00 in0.0 mm 0.65 in16.5 mm
02:25 PM 69.5°F20.8°C 58.9°F14.9°C 69% 3.5 mph NW5.6 kmh NW 2.3 mph3.7 kmh 29.49 in998.6 mb - 0.00 in0.0 mm 0.65 in16.5 mm
02:30 PM 70.5°F21.4°C 58.1°F14.5°C 65% 3.5 mph S5.6 kmh S 5.8 mph9.3 kmh 29.49 in998.6 mb - 0.00 in0.0 mm 0.65 in16.5 mm
02:35 PM 71.1°F21.7°C 58.7°F14.8°C 65% 3.5 mph NNW5.6 kmh NNW 6.9 mph11.1 kmh 29.49 in998.6 mb - 0.00 in0.0 mm 0.65 in16.5 mm
02:40 PM 71.9°F22.2°C 59.5°F15.3°C 65% 2.3 mph SW3.7 kmh SW 3.5 mph5.6 kmh 29.49 in998.6 mb - 0.00 in0.0 mm 0.65 in16.5 mm
02:45 PM 71.4°F21.9°C 58.2°F14.6°C 63% 4.6 mph WSW7.4 kmh WSW 5.8 mph9.3 kmh 29.50 in999.0 mb - 0.00 in0.0 mm 0.65 in16.5 mm
02:50 PM 70.2°F21.2°C 57.9°F14.4°C 65% 4.6 mph SW7.4 kmh SW 4.6 mph7.4 kmh 29.49 in998.6 mb - 0.00 in0.0 mm 0.65 in16.5 mm
02:55 PM 69.8°F21.0°C 58.7°F14.8°C 68% 3.5 mph W5.6 kmh W 5.8 mph9.3 kmh 29.49 in998.6 mb - 0.00 in0.0 mm 0.65 in16.5 mm
03:00 PM 69.8°F21.0°C 58.8°F14.9°C 68% 2.3 mph WSW3.7 kmh WSW 3.5 mph5.6 kmh 29.50 in999.0 mb - 0.00 in0.0 mm 0.65 in16.5 mm
03:10 PM 69.9°F21.1°C 58.0°F14.4°C 66% 4.6 mph WNW7.4 kmh WNW 3.5 mph5.6 kmh 29.50 in999.0 mb - 0.00 in0.0 mm 0.65 in16.5 mm
03:15 PM 70.5°F21.4°C 58.2°F14.6°C 65% 4.6 mph NE7.4 kmh NE 2.3 mph3.7 kmh 29.50 in999.0 mb - 0.00 in0.0 mm 0.65 in16.5 mm
03:20 PM 70.6°F21.4°C 58.2°F14.6°C 65% 2.3 mph S3.7 kmh S 1.2 mph1.9 kmh 29.50 in999.0 mb - 0.00 in0.0 mm 0.65 in16.5 mm
03:25 PM 70.4°F21.3°C 58.1°F14.5°C 65% 4.6 mph SW7.4 kmh SW 5.8 mph9.3 kmh 29.49 in998.6 mb - 0.00 in0.0 mm 0.65 in16.5 mm
03:30 PM 69.4°F20.8°C 58.4°F14.7°C 68% 2.3 mph SW3.7 kmh SW 3.5 mph5.6 kmh 29.51 in999.3 mb - 0.00 in0.0 mm 0.65 in16.5 mm
03:35 PM 69.7°F20.9°C 59.0°F15.0°C 69% 3.5 mph W5.6 kmh W 6.9 mph11.1 kmh 29.51 in999.3 mb - 0.00 in0.0 mm 0.65 in16.5 mm
03:40 PM 70.2°F21.2°C 59.9°F15.5°C 70% 3.5 mph WSW5.6 kmh WSW 2.3 mph3.7 kmh 29.52 in999.7 mb - 0.00 in0.0 mm 0.65 in16.5 mm
03:45 PM 70.6°F21.4°C 59.5°F15.3°C 68% 3.5 mph NW5.6 kmh NW 9.2 mph14.8 kmh 29.52 in999.7 mb - 0.00 in0.0 mm 0.65 in16.5 mm
03:50 PM 70.9°F21.6°C 59.0°F15.0°C 66% 4.6 mph W7.4 kmh W 11.5 mph18.5 kmh 29.51 in999.3 mb - 0.00 in0.0 mm 0.65 in16.5 mm
03:55 PM 71.1°F21.7°C 58.7°F14.8°C 65% 3.5 mph NW5.6 kmh NW 4.6 mph7.4 kmh 29.51 in999.3 mb - 0.00 in0.0 mm 0.65 in16.5 mm
04:00 PM 70.1°F21.2°C 59.0°F15.0°C 68% 3.5 mph WNW5.6 kmh WNW 4.6 mph7.4 kmh 29.51 in999.3 mb - 0.00 in0.0 mm 0.65 in16.5 mm
04:10 PM 70.5°F21.4°C 58.2°F14.6°C 65% 4.6 mph SE7.4 kmh SE 3.5 mph5.6 kmh 29.51 in999.3 mb - 0.00 in0.0 mm 0.65 in16.5 mm
04:15 PM 69.8°F21.0°C 57.5°F14.2°C 65% 3.5 mph WNW5.6 kmh WNW 3.5 mph5.6 kmh 29.51 in999.3 mb - 0.00 in0.0 mm 0.65 in16.5 mm
04:20 PM 70.4°F21.3°C 58.1°F14.5°C 65% 4.6 mph W7.4 kmh W 4.6 mph7.4 kmh 29.51 in999.3 mb - 0.00 in0.0 mm 0.65 in16.5 mm
04:25 PM 70.0°F21.1°C 58.1°F14.5°C 66% 4.6 mph W7.4 kmh W 2.3 mph3.7 kmh 29.51 in999.3 mb - 0.00 in0.0 mm 0.65 in16.5 mm
04:30 PM 68.7°F20.4°C 58.5°F14.7°C 70% 1.2 mph WNW1.9 kmh WNW 3.5 mph5.6 kmh 29.52 in999.7 mb - 0.00 in0.0 mm 0.65 in16.5 mm
04:35 PM 68.4°F20.2°C 58.2°F14.6°C 70% 2.3 mph NW3.7 kmh NW 3.5 mph5.6 kmh 29.52 in999.7 mb - 0.00 in0.0 mm 0.65 in16.5 mm
04:40 PM 68.0°F20.0°C 59.4°F15.2°C 74% 2.3 mph SW3.7 kmh SW 3.5 mph5.6 kmh 29.52 in999.7 mb - 0.00 in0.0 mm 0.65 in16.5 mm
04:45 PM 68.0°F20.0°C 58.2°F14.6°C 71% 2.3 mph NW3.7 kmh NW 4.6 mph7.4 kmh 29.52 in999.7 mb - 0.00 in0.0 mm 0.65 in16.5 mm
04:50 PM 67.5°F19.7°C 58.6°F14.8°C 73% 2.3 mph SW3.7 kmh SW 3.5 mph5.6 kmh 29.53 in1000.0 mb - 0.00 in0.0 mm 0.65 in16.5 mm
04:55 PM 66.6°F19.2°C 59.1°F15.1°C 77% 2.3 mph WSW3.7 kmh WSW 3.5 mph5.6 kmh 29.53 in1000.0 mb - 0.00 in0.0 mm 0.65 in16.5 mm
05:00 PM 66.6°F19.2°C 59.8°F15.4°C 79% 2.3 mph WNW3.7 kmh WNW 2.3 mph3.7 kmh 29.53 in1000.0 mb - 0.00 in0.0 mm 0.65 in16.5 mm
05:10 PM 69.7°F20.9°C 61.4°F16.3°C 75% 3.5 mph NW5.6 kmh NW 3.5 mph5.6 kmh 29.53 in1000.0 mb - 0.00 in0.0 mm 0.65 in16.5 mm
05:15 PM 69.4°F20.8°C 60.3°F15.7°C 73% 2.3 mph WSW3.7 kmh WSW 3.5 mph5.6 kmh 29.53 in1000.0 mb - 0.00 in0.0 mm 0.65 in16.5 mm
05:20 PM 69.1°F20.6°C 59.7°F15.4°C 72% 2.3 mph W3.7 kmh W 3.5 mph5.6 kmh 29.53 in1000.0 mb - 0.00 in0.0 mm 0.65 in16.5 mm
05:25 PM 68.7°F20.4°C 59.3°F15.2°C 72% 2.3 mph N3.7 kmh N 6.9 mph11.1 kmh 29.54 in1000.3 mb - 0.00 in0.0 mm 0.65 in16.5 mm
05:30 PM 68.4°F20.2°C 58.2°F14.6°C 70% 4.6 mph W7.4 kmh W 5.8 mph9.3 kmh 29.54 in1000.3 mb - 0.00 in0.0 mm 0.65 in16.5 mm
05:35 PM 68.4°F20.2°C 58.6°F14.8°C 71% 2.3 mph NW3.7 kmh NW 3.5 mph5.6 kmh 29.54 in1000.3 mb - 0.00 in0.0 mm 0.65 in16.5 mm
05:40 PM 69.3°F20.7°C 59.1°F15.1°C 70% 2.3 mph NNW3.7 kmh NNW 3.5 mph5.6 kmh 29.53 in1000.0 mb - 0.00 in0.0 mm 0.65 in16.5 mm
05:45 PM 69.1°F20.6°C 58.9°F14.9°C 70% 3.5 mph NW5.6 kmh NW 3.5 mph5.6 kmh 29.54 in1000.3 mb - 0.00 in0.0 mm 0.65 in16.5 mm
05:50 PM 69.6°F20.9°C 59.0°F15.0°C 69% 4.6 mph WNW7.4 kmh WNW 6.9 mph11.1 kmh 29.54 in1000.3 mb - 0.00 in0.0 mm 0.65 in16.5 mm
05:55 PM 68.6°F20.3°C 58.8°F14.9°C 71% 3.5 mph SW5.6 kmh SW 3.5 mph5.6 kmh 29.54 in1000.3 mb - 0.00 in0.0 mm 0.65 in16.5 mm
06:00 PM 69.4°F20.8°C 59.2°F15.1°C 70% 2.3 mph SW3.7 kmh SW 4.6 mph7.4 kmh 29.54 in1000.3 mb - 0.00 in0.0 mm 0.65 in16.5 mm
06:10 PM 69.1°F20.6°C 57.3°F14.1°C 66% 3.5 mph WNW5.6 kmh WNW 5.8 mph9.3 kmh 29.55 in1000.7 mb - 0.00 in0.0 mm 0.65 in16.5 mm
06:15 PM 69.2°F20.7°C 57.0°F13.9°C 65% 3.5 mph W5.6 kmh W 8.1 mph13.0 kmh 29.55 in1000.7 mb - 0.00 in0.0 mm 0.65 in16.5 mm
06:20 PM 70.5°F21.4°C 58.1°F14.5°C 65% 1.2 mph NNW1.9 kmh NNW 2.3 mph3.7 kmh 29.54 in1000.3 mb - 0.00 in0.0 mm 0.65 in16.5 mm
06:25 PM 69.6°F20.9°C 57.7°F14.3°C 66% 3.5 mph NW5.6 kmh NW 4.6 mph7.4 kmh 29.55 in1000.7 mb - 0.00 in0.0 mm 0.65 in16.5 mm
06:30 PM 69.8°F21.0°C 57.5°F14.2°C 65% 4.6 mph W7.4 kmh W 3.5 mph5.6 kmh 29.55 in1000.7 mb - 0.00 in0.0 mm 0.65 in16.5 mm
06:35 PM 69.5°F20.8°C 57.2°F14.0°C 65% 3.5 mph N5.6 kmh N 3.5 mph5.6 kmh 29.55 in1000.7 mb - 0.00 in0.0 mm 0.65 in16.5 mm
06:40 PM 68.4°F20.2°C 57.8°F14.3°C 69% 2.3 mph WNW3.7 kmh WNW 3.5 mph5.6 kmh 29.56 in1001.0 mb - 0.00 in0.0 mm 0.65 in16.5 mm
06:45 PM 67.5°F19.7°C 57.4°F14.1°C 70% 2.3 mph SW3.7 kmh SW 6.9 mph11.1 kmh 29.56 in1001.0 mb - 0.00 in0.0 mm 0.65 in16.5 mm
06:50 PM 66.6°F19.2°C 56.9°F13.8°C 71% 1.2 mph W1.9 kmh W 4.6 mph7.4 kmh 29.56 in1001.0 mb - 0.00 in0.0 mm 0.65 in16.5 mm
06:55 PM 66.6°F19.2°C 58.0°F14.4°C 74% 2.3 mph W3.7 kmh W 3.5 mph5.6 kmh 29.56 in1001.0 mb - 0.00 in0.0 mm 0.65 in16.5 mm
07:00 PM 65.0°F18.3°C 59.1°F15.1°C 81% 3.5 mph W5.6 kmh W 5.8 mph9.3 kmh 29.57 in1001.4 mb - 0.00 in0.0 mm 0.65 in16.5 mm
07:10 PM 63.5°F17.5°C 59.9°F15.5°C 88% 2.3 mph S3.7 kmh S 2.3 mph3.7 kmh 29.57 in1001.4 mb - 0.01 in0.3 mm 0.66 in16.8 mm
07:15 PM 63.0°F17.2°C 60.0°F15.6°C 90% 1.2 mph SW1.9 kmh SW 4.6 mph7.4 kmh 29.57 in1001.4 mb - 0.01 in0.3 mm 0.66 in16.8 mm
07:20 PM 62.9°F17.2°C 60.2°F15.7°C 91% 2.3 mph N3.7 kmh N 3.5 mph5.6 kmh 29.57 in1001.4 mb - 0.00 in0.0 mm 0.66 in16.8 mm
07:25 PM 62.2°F16.8°C 60.5°F15.8°C 94% 2.3 mph WNW3.7 kmh WNW 3.5 mph5.6 kmh 29.58 in1001.7 mb - 0.00 in0.0 mm 0.66 in16.8 mm
07:30 PM 62.2°F16.8°C 60.1°F15.6°C 93% 2.3 mph W3.7 kmh W 3.5 mph5.6 kmh 29.58 in1001.7 mb - 0.00 in0.0 mm 0.66 in16.8 mm
07:35 PM 62.4°F16.9°C 60.4°F15.8°C 93% 2.3 mph WSW3.7 kmh WSW 3.5 mph5.6 kmh 29.58 in1001.7 mb - 0.00 in0.0 mm 0.66 in16.8 mm
07:40 PM 62.4°F16.9°C 60.4°F15.8°C 93% 2.3 mph W3.7 kmh W 2.3 mph3.7 kmh 29.58 in1001.7 mb - 0.00 in0.0 mm 0.66 in16.8 mm
07:45 PM 62.4°F16.9°C 60.4°F15.8°C 93% 1.2 mph SW1.9 kmh SW 4.6 mph7.4 kmh 29.58 in1001.7 mb - 0.00 in0.0 mm 0.66 in16.8 mm
07:50 PM 62.4°F16.9°C 60.4°F15.8°C 93% 1.2 mph WSW1.9 kmh WSW 1.2 mph1.9 kmh 29.58 in1001.7 mb - 0.00 in0.0 mm 0.66 in16.8 mm
07:55 PM 62.2°F16.8°C 60.2°F15.7°C 93% 2.3 mph SW3.7 kmh SW 1.2 mph1.9 kmh 29.58 in1001.7 mb - 0.00 in0.0 mm 0.66 in16.8 mm
08:00 PM 62.1°F16.7°C 60.6°F15.9°C 95% Calm Calm 1.2 mph1.9 kmh 29.58 in1001.7 mb - 0.00 in0.0 mm 0.66 in16.8 mm
08:10 PM 61.3°F16.3°C 60.2°F15.7°C 96% 1.2 mph W1.9 kmh W 1.2 mph1.9 kmh 29.59 in1002.0 mb - 0.00 in0.0 mm 0.66 in16.8 mm
08:15 PM 61.0°F16.1°C 59.8°F15.4°C 96% 1.2 mph WNW1.9 kmh WNW 3.5 mph5.6 kmh 29.59 in1002.0 mb - 0.00 in0.0 mm 0.66 in16.8 mm
08:20 PM 60.6°F15.9°C 59.5°F15.3°C 96% 1.2 mph WSW1.9 kmh WSW 1.2 mph1.9 kmh 29.59 in1002.0 mb - 0.00 in0.0 mm 0.66 in16.8 mm
08:25 PM 60.3°F15.7°C 59.1°F15.1°C 96% 1.2 mph SW1.9 kmh SW 2.3 mph3.7 kmh 29.59 in1002.0 mb - 0.00 in0.0 mm 0.66 in16.8 mm
08:30 PM 60.3°F15.7°C 59.7°F15.4°C 98% 1.2 mph WNW1.9 kmh WNW 2.3 mph3.7 kmh 29.59 in1002.0 mb - 0.00 in0.0 mm 0.66 in16.8 mm
08:35 PM 60.1°F15.6°C 59.5°F15.3°C 98% 1.2 mph S1.9 kmh S 1.2 mph1.9 kmh 29.59 in1002.0 mb - 0.00 in0.0 mm 0.66 in16.8 mm
08:40 PM 59.7°F15.4°C 59.2°F15.1°C 98% 1.2 mph WSW1.9 kmh WSW 1.2 mph1.9 kmh 29.59 in1002.0 mb - 0.00 in0.0 mm 0.66 in16.8 mm
08:45 PM 59.4°F15.2°C 58.8°F14.9°C 98% Calm Calm 1.2 mph1.9 kmh 29.59 in1002.0 mb - 0.00 in0.0 mm 0.66 in16.8 mm
08:50 PM 59.4°F15.2°C 58.8°F14.9°C 98% Calm Calm -- 29.60 in1002.4 mb - 0.00 in0.0 mm 0.66 in16.8 mm
08:55 PM 59.4°F15.2°C 58.8°F14.9°C 98% Calm Calm -- 29.59 in1002.0 mb - 0.00 in0.0 mm 0.66 in16.8 mm
09:00 PM 59.0°F15.0°C 58.4°F14.7°C 98% Calm Calm -- 29.60 in1002.4 mb - 0.00 in0.0 mm 0.66 in16.8 mm
09:10 PM 58.8°F14.9°C 58.3°F14.6°C 98% Calm Calm -- 29.60 in1002.4 mb - 0.00 in0.0 mm 0.66 in16.8 mm
09:15 PM 58.5°F14.7°C 57.9°F14.4°C 98% Calm Calm 1.2 mph1.9 kmh 29.60 in1002.4 mb - 0.00 in0.0 mm 0.66 in16.8 mm
09:20 PM 58.3°F14.6°C 57.7°F14.3°C 98% Calm Calm -- 29.60 in1002.4 mb - 0.00 in0.0 mm 0.66 in16.8 mm
09:25 PM 58.3°F14.6°C 57.7°F14.3°C 98% Calm Calm -- 29.61 in1002.7 mb - 0.00 in0.0 mm 0.66 in16.8 mm
09:30 PM 57.9°F14.4°C 57.4°F14.1°C 98% Calm Calm 1.2 mph1.9 kmh 29.61 in1002.7 mb - 0.00 in0.0 mm 0.66 in16.8 mm
09:35 PM 57.8°F14.3°C 57.3°F14.1°C 98% Calm Calm -- 29.61 in1002.7 mb - 0.00 in0.0 mm 0.66 in16.8 mm
09:40 PM 57.7°F14.3°C 57.2°F14.0°C 98% Calm Calm -- 29.61 in1002.7 mb - 0.00 in0.0 mm 0.66 in16.8 mm
09:45 PM 57.4°F14.1°C 56.8°F13.8°C 98% Calm Calm -- 29.61 in1002.7 mb - 0.00 in0.0 mm 0.66 in16.8 mm
09:50 PM 56.8°F13.8°C 56.3°F13.5°C 98% Calm Calm -- 29.61 in1002.7 mb - 0.00 in0.0 mm 0.66 in16.8 mm
09:55 PM 56.8°F13.8°C 56.3°F13.5°C 98% Calm Calm -- 29.62 in1003.0 mb - 0.00 in0.0 mm 0.66 in16.8 mm
10:00 PM 56.7°F13.7°C 56.1°F13.4°C 98% Calm Calm -- 29.62 in1003.0 mb - 0.00 in0.0 mm 0.66 in16.8 mm
10:10 PM 56.3°F13.5°C 55.7°F13.2°C 98% Calm Calm -- 29.62 in1003.0 mb - 0.00 in0.0 mm 0.66 in16.8 mm
10:15 PM 56.3°F13.5°C 55.7°F13.2°C 98% Calm Calm -- 29.62 in1003.0 mb - 0.00 in0.0 mm 0.66 in16.8 mm
10:20 PM 56.1°F13.4°C 55.6°F13.1°C 98% Calm Calm -- 29.62 in1003.0 mb - 0.00 in0.0 mm 0.66 in16.8 mm
10:25 PM 55.9°F13.3°C 55.4°F13.0°C 98% Calm Calm -- 29.62 in1003.0 mb - 0.00 in0.0 mm 0.66 in16.8 mm
10:30 PM 55.9°F13.3°C 55.4°F13.0°C 98% Calm Calm 1.2 mph1.9 kmh 29.62 in1003.0 mb - 0.00 in0.0 mm 0.66 in16.8 mm
10:35 PM 55.9°F13.3°C 55.4°F13.0°C 98% Calm Calm -- 29.62 in1003.0 mb - 0.00 in0.0 mm 0.66 in16.8 mm
10:40 PM 55.9°F13.3°C 55.4°F13.0°C 98% Calm Calm -- 29.62 in1003.0 mb - 0.00 in0.0 mm 0.66 in16.8 mm
10:45 PM 55.8°F13.2°C 55.2°F12.9°C 98% Calm Calm -- 29.62 in1003.0 mb - 0.00 in0.0 mm 0.66 in16.8 mm
10:50 PM 55.8°F13.2°C 55.2°F12.9°C 98% Calm Calm -- 29.62 in1003.0 mb - 0.00 in0.0 mm 0.66 in16.8 mm
10:55 PM 55.8°F13.2°C 55.2°F12.9°C 98% Calm Calm -- 29.62 in1003.0 mb - 0.00 in0.0 mm 0.66 in16.8 mm
11:00 PM 55.8°F13.2°C 55.2°F12.9°C 98% Calm Calm -- 29.62 in1003.0 mb - 0.00 in0.0 mm 0.66 in16.8 mm
11:10 PM 55.8°F13.2°C 55.2°F12.9°C 98% Calm Calm -- 29.64 in1003.7 mb - 0.00 in0.0 mm 0.66 in16.8 mm
11:15 PM 55.9°F13.3°C 55.4°F13.0°C 98% 1.2 mph SW1.9 kmh SW 1.2 mph1.9 kmh 29.64 in1003.7 mb - 0.00 in0.0 mm 0.66 in16.8 mm
11:20 PM 56.3°F13.5°C 55.7°F13.2°C 98% Calm Calm 1.2 mph1.9 kmh 29.64 in1003.7 mb - 0.00 in0.0 mm 0.66 in16.8 mm
11:25 PM 56.3°F13.5°C 55.7°F13.2°C 98% Calm Calm -- 29.62 in1003.0 mb - 0.00 in0.0 mm 0.66 in16.8 mm
11:30 PM 56.3°F13.5°C 55.7°F13.2°C 98% Calm Calm -- 29.64 in1003.7 mb - 0.00 in0.0 mm 0.66 in16.8 mm
11:35 PM 56.3°F13.5°C 55.7°F13.2°C 98% Calm Calm -- 29.64 in1003.7 mb - 0.00 in0.0 mm 0.66 in16.8 mm
11:40 PM 56.3°F13.5°C 55.7°F13.2°C 98% Calm Calm -- 29.64 in1003.7 mb - 0.00 in0.0 mm 0.66 in16.8 mm
11:45 PM 56.5°F13.6°C 55.9°F13.3°C 98% Calm Calm -- 29.64 in1003.7 mb - 0.00 in0.0 mm 0.66 in16.8 mm
11:50 PM 56.5°F13.6°C 55.9°F13.3°C 98% Calm Calm -- 29.64 in1003.7 mb - 0.00 in0.0 mm 0.66 in16.8 mm
11:55 PM 56.5°F13.6°C 55.9°F13.3°C 98% 1.2 mph WSW1.9 kmh WSW 2.3 mph3.7 kmh 29.64 in1003.7 mb - 0.00 in0.0 mm 0.66 in16.8 mm